createdAt,value
2017-01-07T00:00:07.055Z,1016.2
2017-01-07T00:00:28.373Z,1016.2
2017-01-07T00:00:49.697Z,1016.2
2017-01-07T00:01:11.027Z,1016.2
2017-01-07T00:01:32.377Z,1016.2
2017-01-07T00:01:53.693Z,1016.2
2017-01-07T00:02:14.997Z,1016.2
2017-01-07T00:02:36.330Z,1016.2
2017-01-07T00:02:57.679Z,1016.2
2017-01-07T00:03:18.982Z,1016.2
2017-01-07T00:03:40.295Z,1016.2
2017-01-07T00:04:01.644Z,1016.2
2017-01-07T00:04:22.962Z,1016.2
2017-01-07T00:04:44.272Z,1016.2
2017-01-07T00:05:05.575Z,1016.2
2017-01-07T00:05:26.939Z,1016.1
2017-01-07T00:05:48.316Z,1016.2
2017-01-07T00:06:09.619Z,1016.1
2017-01-07T00:06:30.928Z,1016.2
2017-01-07T00:06:52.233Z,1016.1
2017-01-07T00:07:13.556Z,1016.1
2017-01-07T00:07:34.863Z,1016.1
2017-01-07T00:07:56.240Z,1016.1
2017-01-07T00:08:17.575Z,1016.1
2017-01-07T00:08:38.908Z,1016.1
2017-01-07T00:09:00.525Z,1016.1
2017-01-07T00:09:21.969Z,1016.1
2017-01-07T00:09:43.344Z,1016.1
2017-01-07T00:10:04.675Z,1016.1
2017-01-07T00:10:25.993Z,1016.1
2017-01-07T00:10:47.318Z,1016.1
2017-01-07T00:11:08.623Z,1016.1
2017-01-07T00:11:29.948Z,1016.1
2017-01-07T00:11:51.263Z,1016.1
2017-01-07T00:12:12.573Z,1016.1
2017-01-07T00:12:33.962Z,1016.1
2017-01-07T00:12:55.308Z,1016.1
2017-01-07T00:13:16.661Z,1016.1
2017-01-07T00:13:37.985Z,1016.1
2017-01-07T00:13:59.294Z,1016.1
2017-01-07T00:14:20.647Z,1016.1
2017-01-07T00:14:41.959Z,1016.1
2017-01-07T00:15:03.246Z,1016.1
2017-01-07T00:15:24.561Z,1016.1
2017-01-07T00:15:45.898Z,1016.1
2017-01-07T00:16:07.228Z,1016.2
2017-01-07T00:16:28.568Z,1016.1
2017-01-07T00:16:49.924Z,1016.1
2017-01-07T00:17:11.252Z,1016.2
2017-01-07T00:17:32.568Z,1016.1
2017-01-07T00:17:53.909Z,1016.1
2017-01-07T00:18:15.248Z,1016.2
2017-01-07T00:18:36.556Z,1016.1
2017-01-07T00:18:57.883Z,1016.1
2017-01-07T00:19:19.179Z,1016.1
2017-01-07T00:19:40.485Z,1016.1
2017-01-07T00:20:01.798Z,1016.1
2017-01-07T00:20:23.138Z,1016.1
2017-01-07T00:20:44.460Z,1016.1
2017-01-07T00:21:05.766Z,1016.1
2017-01-07T00:21:27.065Z,1016.1
2017-01-07T00:21:48.374Z,1016.1
2017-01-07T00:22:09.679Z,1016.1
2017-01-07T00:22:31.000Z,1016
2017-01-07T00:22:52.334Z,1016.1
2017-01-07T00:23:13.642Z,1016.1
2017-01-07T00:23:34.958Z,1016.1
2017-01-07T00:23:56.278Z,1016.1
2017-01-07T00:24:17.626Z,1016.1
2017-01-07T00:24:38.933Z,1016.1
2017-01-07T00:25:00.236Z,1016.1
2017-01-07T00:25:21.546Z,1016.1
2017-01-07T00:25:42.860Z,1016
2017-01-07T00:26:04.174Z,1016.1
2017-01-07T00:26:25.498Z,1016.1
2017-01-07T00:26:46.816Z,1016.1
2017-01-07T00:27:08.125Z,1016.1
2017-01-07T00:27:29.426Z,1016.1
2017-01-07T00:27:50.760Z,1016.1
2017-01-07T00:28:12.079Z,1016.1
2017-01-07T00:28:33.378Z,1016.1
2017-01-07T00:28:54.680Z,1016.1
2017-01-07T00:29:16.001Z,1016.1
2017-01-07T00:29:37.313Z,1016.1
2017-01-07T00:29:58.622Z,1016.1
2017-01-07T00:30:19.928Z,1016.1
2017-01-07T00:30:41.225Z,1016.1
2017-01-07T00:31:02.534Z,1016.1
2017-01-07T00:31:23.840Z,1016.1
2017-01-07T00:31:45.149Z,1016.1
2017-01-07T00:32:06.462Z,1016
2017-01-07T00:32:27.776Z,1016
2017-01-07T00:32:49.140Z,1016
2017-01-07T00:33:10.453Z,1016
2017-01-07T00:33:31.776Z,1016
2017-01-07T00:33:53.080Z,1016
2017-01-07T00:34:14.395Z,1016
2017-01-07T00:34:35.699Z,1016
2017-01-07T00:34:57.038Z,1016
2017-01-07T00:35:18.338Z,1016
2017-01-07T00:35:39.642Z,1016
2017-01-07T00:36:00.981Z,1016
2017-01-07T00:36:22.294Z,1015.9
2017-01-07T00:36:43.611Z,1015.9
2017-01-07T00:37:04.919Z,1016
2017-01-07T00:37:26.238Z,1015.9
2017-01-07T00:37:47.570Z,1015.9
2017-01-07T00:38:08.873Z,1015.9
2017-01-07T00:38:30.178Z,1016
2017-01-07T00:38:51.516Z,1015.9
2017-01-07T00:39:12.815Z,1015.9
2017-01-07T00:39:34.117Z,1015.9
2017-01-07T00:39:55.450Z,1016
2017-01-07T00:40:16.800Z,1015.9
2017-01-07T00:40:38.167Z,1016
2017-01-07T00:40:59.500Z,1016
2017-01-07T00:41:20.858Z,1016
2017-01-07T00:41:42.159Z,1016
2017-01-07T00:42:03.519Z,1016
2017-01-07T00:42:24.816Z,1016
2017-01-07T00:42:46.118Z,1016
2017-01-07T00:43:07.426Z,1015.9
2017-01-07T00:43:28.719Z,1015.9
2017-01-07T00:43:50.096Z,1016
2017-01-07T00:44:11.417Z,1015.9
2017-01-07T00:44:32.721Z,1015.9
2017-01-07T00:44:54.036Z,1015.9
2017-01-07T00:45:15.358Z,1015.9
2017-01-07T00:45:36.689Z,1015.9
2017-01-07T00:45:58.136Z,1015.9
2017-01-07T00:46:19.488Z,1015.9
2017-01-07T00:46:40.815Z,1015.9
2017-01-07T00:47:02.115Z,1015.9
2017-01-07T00:47:23.411Z,1015.9
2017-01-07T00:47:44.735Z,1015.9
2017-01-07T00:48:06.043Z,1015.9
2017-01-07T00:48:27.340Z,1015.9
2017-01-07T00:48:48.659Z,1015.8
2017-01-07T00:49:09.967Z,1015.9
2017-01-07T00:49:31.314Z,1015.9
2017-01-07T00:49:52.614Z,1015.8
2017-01-07T00:50:13.941Z,1015.9
2017-01-07T00:50:35.262Z,1015.9
2017-01-07T00:50:56.587Z,1015.8
2017-01-07T00:51:17.903Z,1015.8
2017-01-07T00:51:39.208Z,1015.9
2017-01-07T00:52:00.582Z,1015.8
2017-01-07T00:52:21.981Z,1015.9
2017-01-07T00:52:43.378Z,1015.8
2017-01-07T00:53:04.686Z,1015.9
2017-01-07T00:53:25.979Z,1015.9
2017-01-07T00:53:47.284Z,1015.9
2017-01-07T00:54:08.583Z,1015.9
2017-01-07T00:54:29.899Z,1015.9
2017-01-07T00:54:51.279Z,1015.9
2017-01-07T00:55:12.580Z,1015.9
2017-01-07T00:55:33.907Z,1015.9
2017-01-07T00:55:55.208Z,1015.9
2017-01-07T00:56:16.523Z,1015.9
2017-01-07T00:56:37.820Z,1015.9
2017-01-07T00:56:59.129Z,1015.9
2017-01-07T00:57:20.437Z,1015.9
2017-01-07T00:57:41.754Z,1015.9
2017-01-07T00:58:03.072Z,1015.9
2017-01-07T00:58:24.384Z,1015.9
2017-01-07T00:58:45.694Z,1016
2017-01-07T00:59:06.998Z,1015.9
2017-01-07T00:59:28.309Z,1015.9
2017-01-07T00:59:49.622Z,1015.9
2017-01-07T01:00:10.946Z,1015.9
2017-01-07T01:00:32.257Z,1015.9
2017-01-07T01:00:54.429Z,1015.9
2017-01-07T01:01:15.750Z,1015.9
2017-01-07T01:01:37.068Z,1015.9
2017-01-07T01:01:58.393Z,1015.9
2017-01-07T01:02:19.731Z,1015.9
2017-01-07T01:02:41.026Z,1015.9
2017-01-07T01:03:02.327Z,1015.9
2017-01-07T01:03:23.632Z,1015.9
2017-01-07T01:03:44.957Z,1015.8
2017-01-07T01:04:06.283Z,1015.9
2017-01-07T01:04:27.601Z,1015.9
2017-01-07T01:04:48.940Z,1015.9
2017-01-07T01:05:10.269Z,1015.9
2017-01-07T01:05:31.590Z,1015.9
2017-01-07T01:05:52.936Z,1015.9
2017-01-07T01:06:14.241Z,1015.9
2017-01-07T01:06:35.569Z,1015.9
2017-01-07T01:06:56.888Z,1015.9
2017-01-07T01:07:18.211Z,1015.9
2017-01-07T01:07:39.533Z,1015.9
2017-01-07T01:08:00.959Z,1015.9
2017-01-07T01:08:22.293Z,1015.9
2017-01-07T01:08:43.620Z,1015.8
2017-01-07T01:09:04.936Z,1015.8
2017-01-07T01:09:26.247Z,1015.9
2017-01-07T01:09:47.555Z,1015.9
2017-01-07T01:10:08.858Z,1015.9
2017-01-07T01:10:30.169Z,1015.9
2017-01-07T01:10:51.476Z,1015.8
2017-01-07T01:11:12.789Z,1015.9
2017-01-07T01:11:34.099Z,1015.9
2017-01-07T01:11:55.402Z,1015.9
2017-01-07T01:12:16.722Z,1015.9
2017-01-07T01:12:38.079Z,1015.8
2017-01-07T01:12:59.387Z,1015.8
2017-01-07T01:13:20.715Z,1015.8
2017-01-07T01:13:42.038Z,1015.8
2017-01-07T01:14:03.370Z,1015.8
2017-01-07T01:14:24.678Z,1015.8
2017-01-07T01:14:45.995Z,1015.8
2017-01-07T01:15:07.305Z,1015.8
2017-01-07T01:15:28.616Z,1015.8
2017-01-07T01:15:49.934Z,1015.8
2017-01-07T01:16:11.250Z,1015.8
2017-01-07T01:16:32.604Z,1015.8
2017-01-07T01:16:53.928Z,1015.8
2017-01-07T01:17:15.240Z,1015.8
2017-01-07T01:17:36.582Z,1015.7
2017-01-07T01:17:57.885Z,1015.7
2017-01-07T01:18:19.245Z,1015.7
2017-01-07T01:18:40.581Z,1015.7
2017-01-07T01:19:01.987Z,1015.7
2017-01-07T01:19:23.314Z,1015.7
2017-01-07T01:19:44.636Z,1015.6
2017-01-07T01:20:05.944Z,1015.7
2017-01-07T01:20:27.264Z,1015.6
2017-01-07T01:20:48.589Z,1015.7
2017-01-07T01:21:09.901Z,1015.6
2017-01-07T01:21:31.316Z,1015.6
2017-01-07T01:21:52.631Z,1015.6
2017-01-07T01:22:13.960Z,1015.6
2017-01-07T01:22:35.281Z,1015.6
2017-01-07T01:22:56.591Z,1015.6
2017-01-07T01:23:17.926Z,1015.6
2017-01-07T01:23:39.238Z,1015.6
2017-01-07T01:24:00.620Z,1015.6
2017-01-07T01:24:21.921Z,1015.5
2017-01-07T01:24:43.225Z,1015.6
2017-01-07T01:25:04.526Z,1015.6
2017-01-07T01:25:25.849Z,1015.6
2017-01-07T01:25:47.167Z,1015.6
2017-01-07T01:26:08.508Z,1015.5
2017-01-07T01:26:29.893Z,1015.6
2017-01-07T01:26:51.215Z,1015.6
2017-01-07T01:27:12.549Z,1015.5
2017-01-07T01:27:34.061Z,1015.6
2017-01-07T01:27:55.353Z,1015.5
2017-01-07T01:28:16.659Z,1015.6
2017-01-07T01:28:37.973Z,1015.5
2017-01-07T01:28:59.274Z,1015.5
2017-01-07T01:29:20.592Z,1015.5
2017-01-07T01:29:41.905Z,1015.5
2017-01-07T01:30:03.215Z,1015.5
2017-01-07T01:30:24.524Z,1015.6
2017-01-07T01:30:45.821Z,1015.5
2017-01-07T01:31:07.151Z,1015.5
2017-01-07T01:31:28.477Z,1015.5
2017-01-07T01:31:49.782Z,1015.5
2017-01-07T01:32:11.271Z,1015.5
2017-01-07T01:32:32.577Z,1015.6
2017-01-07T01:32:53.883Z,1015.5
2017-01-07T01:33:15.257Z,1015.5
2017-01-07T01:33:36.605Z,1015.5
2017-01-07T01:33:57.909Z,1015.5
2017-01-07T01:34:19.242Z,1015.5
2017-01-07T01:34:40.600Z,1015.5
2017-01-07T01:35:01.994Z,1015.5
2017-01-07T01:35:23.313Z,1015.5
2017-01-07T01:35:44.627Z,1015.6
2017-01-07T01:36:05.957Z,1015.5
2017-01-07T01:36:27.287Z,1015.6
2017-01-07T01:36:48.610Z,1015.6
2017-01-07T01:37:09.907Z,1015.5
2017-01-07T01:37:31.204Z,1015.5
2017-01-07T01:37:52.518Z,1015.5
2017-01-07T01:38:13.843Z,1015.5
2017-01-07T01:38:35.152Z,1015.5
2017-01-07T01:38:56.465Z,1015.5
2017-01-07T01:39:17.770Z,1015.5
2017-01-07T01:39:39.085Z,1015.5
2017-01-07T01:40:00.402Z,1015.5
2017-01-07T01:40:21.730Z,1015.5
2017-01-07T01:40:43.099Z,1015.5
2017-01-07T01:41:04.437Z,1015.5
2017-01-07T01:41:25.741Z,1015.5
2017-01-07T01:41:47.064Z,1015.5
2017-01-07T01:42:08.396Z,1015.5
2017-01-07T01:42:29.736Z,1015.5
2017-01-07T01:42:51.049Z,1015.5
2017-01-07T01:43:12.355Z,1015.5
2017-01-07T01:43:33.661Z,1015.5
2017-01-07T01:43:55.073Z,1015.5
2017-01-07T01:44:16.377Z,1015.5
2017-01-07T01:44:37.695Z,1015.5
2017-01-07T01:44:59.006Z,1015.5
2017-01-07T01:45:20.329Z,1015.6
2017-01-07T01:45:41.639Z,1015.5
2017-01-07T01:46:03.114Z,1015.5
2017-01-07T01:46:24.420Z,1015.5
2017-01-07T01:46:45.738Z,1015.5
2017-01-07T01:47:07.048Z,1015.5
2017-01-07T01:47:28.369Z,1015.4
2017-01-07T01:47:49.709Z,1015.5
2017-01-07T01:48:11.020Z,1015.4
2017-01-07T01:48:32.331Z,1015.5
2017-01-07T01:48:53.637Z,1015.5
2017-01-07T01:49:14.945Z,1015.4
2017-01-07T01:49:36.287Z,1015.4
2017-01-07T01:49:57.604Z,1015.4
2017-01-07T01:50:18.940Z,1015.4
2017-01-07T01:50:40.228Z,1015.5
2017-01-07T01:51:01.533Z,1015.5
2017-01-07T01:51:22.844Z,1015.5
2017-01-07T01:51:44.149Z,1015.4
2017-01-07T01:52:05.454Z,1015.4
2017-01-07T01:52:26.760Z,1015.4
2017-01-07T01:52:48.106Z,1015.5
2017-01-07T01:53:09.399Z,1015.4
2017-01-07T01:53:30.712Z,1015.4
2017-01-07T01:53:52.046Z,1015.4
2017-01-07T01:54:13.361Z,1015.4
2017-01-07T01:54:34.676Z,1015.4
2017-01-07T01:54:55.991Z,1015.4
2017-01-07T01:55:17.292Z,1015.4
2017-01-07T01:55:38.610Z,1015.4
2017-01-07T01:55:59.934Z,1015.4
2017-01-07T01:56:21.274Z,1015.4
2017-01-07T01:56:42.599Z,1015.4
2017-01-07T01:57:03.900Z,1015.4
2017-01-07T01:57:25.203Z,1015.4
2017-01-07T01:57:46.506Z,1015.4
2017-01-07T01:58:07.812Z,1015.3
2017-01-07T01:58:29.131Z,1015.4
2017-01-07T01:58:50.459Z,1015.4
2017-01-07T01:59:11.781Z,1015.3
2017-01-07T01:59:33.105Z,1015.3
2017-01-07T01:59:54.404Z,1015.4
2017-01-07T02:00:15.718Z,1015.3
2017-01-07T02:00:37.051Z,1015.3
2017-01-07T02:00:58.369Z,1015.3
2017-01-07T02:01:19.692Z,1015.3
2017-01-07T02:01:41.010Z,1015.3
2017-01-07T02:02:02.324Z,1015.3
2017-01-07T02:02:23.621Z,1015.3
2017-01-07T02:02:44.926Z,1015.3
2017-01-07T02:03:06.249Z,1015.3
2017-01-07T02:03:27.563Z,1015.3
2017-01-07T02:03:48.873Z,1015.3
2017-01-07T02:04:10.201Z,1015.3
2017-01-07T02:04:31.548Z,1015.3
2017-01-07T02:04:52.862Z,1015.3
2017-01-07T02:05:14.190Z,1015.3
2017-01-07T02:05:35.498Z,1015.3
2017-01-07T02:05:56.801Z,1015.3
2017-01-07T02:06:18.118Z,1015.3
2017-01-07T02:06:39.446Z,1015.3
2017-01-07T02:07:00.755Z,1015.3
2017-01-07T02:07:22.062Z,1015.3
2017-01-07T02:07:43.367Z,1015.3
2017-01-07T02:08:04.710Z,1015.3
2017-01-07T02:08:26.024Z,1015.2
2017-01-07T02:08:47.328Z,1015.2
2017-01-07T02:09:08.657Z,1015.3
2017-01-07T02:09:29.978Z,1015.2
2017-01-07T02:09:53.857Z,1015.3
2017-01-07T02:10:15.188Z,1015.2
2017-01-07T02:10:36.488Z,1015.2
2017-01-07T02:10:57.821Z,1015.2
2017-01-07T02:11:19.133Z,1015.2
2017-01-07T02:11:40.444Z,1015.2
2017-01-07T02:12:01.744Z,1015.2
2017-01-07T02:12:23.039Z,1015.2
2017-01-07T02:12:44.340Z,1015.2
2017-01-07T02:13:05.641Z,1015.2
2017-01-07T02:13:26.959Z,1015.2
2017-01-07T02:13:48.999Z,1015.3
2017-01-07T02:14:10.301Z,1015.3
2017-01-07T02:14:31.603Z,1015.3
2017-01-07T02:14:52.951Z,1015.3
2017-01-07T02:15:14.277Z,1015.2
2017-01-07T02:15:35.594Z,1015.3
2017-01-07T02:15:56.920Z,1015.3
2017-01-07T02:16:18.244Z,1015.3
2017-01-07T02:16:39.554Z,1015.3
2017-01-07T02:17:00.856Z,1015.2
2017-01-07T02:17:22.147Z,1015.2
2017-01-07T02:17:43.468Z,1015.2
2017-01-07T02:18:04.787Z,1015.2
2017-01-07T02:18:26.097Z,1015.2
2017-01-07T02:18:47.409Z,1015.2
2017-01-07T02:19:08.717Z,1015.2
2017-01-07T02:19:30.029Z,1015.2
2017-01-07T02:19:51.321Z,1015.1
2017-01-07T02:20:12.626Z,1015.2
2017-01-07T02:20:33.922Z,1015.1
2017-01-07T02:20:55.236Z,1015.1
2017-01-07T02:21:16.535Z,1015.1
2017-01-07T02:21:37.859Z,1015.2
2017-01-07T02:21:59.169Z,1015.2
2017-01-07T02:22:20.476Z,1015.2
2017-01-07T02:22:41.799Z,1015.2
2017-01-07T02:23:03.109Z,1015.2
2017-01-07T02:23:24.539Z,1015.2
2017-01-07T02:23:45.838Z,1015.2
2017-01-07T02:24:07.146Z,1015.2
2017-01-07T02:24:28.458Z,1015.2
2017-01-07T02:24:49.757Z,1015.1
2017-01-07T02:25:11.060Z,1015.1
2017-01-07T02:25:32.366Z,1015.1
2017-01-07T02:25:53.683Z,1015.1
2017-01-07T02:26:14.985Z,1015.1
2017-01-07T02:26:36.288Z,1015.1
2017-01-07T02:26:57.596Z,1015.1
2017-01-07T02:27:18.918Z,1015.1
2017-01-07T02:27:40.237Z,1015.1
2017-01-07T02:28:01.533Z,1015.2
2017-01-07T02:28:22.855Z,1015.1
2017-01-07T02:28:44.178Z,1015.1
2017-01-07T02:29:05.501Z,1015.2
2017-01-07T02:29:26.814Z,1015.1
2017-01-07T02:29:48.992Z,1015.1
2017-01-07T02:30:10.335Z,1015.1
2017-01-07T02:30:31.643Z,1015.1
2017-01-07T02:30:52.965Z,1015.1
2017-01-07T02:31:14.436Z,1015.1
2017-01-07T02:31:35.737Z,1015.1
2017-01-07T02:31:57.064Z,1015.1
2017-01-07T02:32:18.380Z,1015.1
2017-01-07T02:32:39.687Z,1015.1
2017-01-07T02:33:00.994Z,1015.1
2017-01-07T02:33:22.309Z,1015.1
2017-01-07T02:33:43.618Z,1015.1
2017-01-07T02:34:04.923Z,1015.1
2017-01-07T02:34:26.260Z,1015.1
2017-01-07T02:34:47.590Z,1015.1
2017-01-07T02:35:08.908Z,1015.1
2017-01-07T02:35:30.205Z,1015
2017-01-07T02:35:51.529Z,1015
2017-01-07T02:36:12.841Z,1015
2017-01-07T02:36:34.168Z,1015
2017-01-07T02:36:55.483Z,1015
2017-01-07T02:37:16.803Z,1015
2017-01-07T02:37:38.130Z,1015
2017-01-07T02:37:59.445Z,1015
2017-01-07T02:38:20.768Z,1015
2017-01-07T02:38:42.091Z,1015
2017-01-07T02:39:03.390Z,1015
2017-01-07T02:39:24.702Z,1015
2017-01-07T02:39:46.023Z,1015
2017-01-07T02:40:07.339Z,1015
2017-01-07T02:40:28.640Z,1015
2017-01-07T02:40:49.950Z,1015
2017-01-07T02:41:11.274Z,1015
2017-01-07T02:41:32.623Z,1015
2017-01-07T02:41:53.963Z,1015
2017-01-07T02:42:15.261Z,1015
2017-01-07T02:42:36.572Z,1015
2017-01-07T02:42:57.871Z,1015
2017-01-07T02:43:19.178Z,1015
2017-01-07T02:43:40.487Z,1015
2017-01-07T02:44:01.789Z,1014.9
2017-01-07T02:44:23.115Z,1015
2017-01-07T02:44:44.424Z,1014.9
2017-01-07T02:45:05.737Z,1014.9
2017-01-07T02:45:27.067Z,1015
2017-01-07T02:45:48.380Z,1014.9
2017-01-07T02:46:09.715Z,1015
2017-01-07T02:46:31.023Z,1014.9
2017-01-07T02:46:52.339Z,1014.9
2017-01-07T02:47:13.680Z,1014.9
2017-01-07T02:47:34.997Z,1015
2017-01-07T02:47:56.304Z,1015
2017-01-07T02:48:17.613Z,1014.9
2017-01-07T02:48:38.923Z,1015
2017-01-07T02:49:00.231Z,1015
2017-01-07T02:49:21.544Z,1015
2017-01-07T02:49:42.859Z,1014.9
2017-01-07T02:50:04.172Z,1015
2017-01-07T02:50:25.472Z,1015
2017-01-07T02:50:46.768Z,1015
2017-01-07T02:51:08.079Z,1015
2017-01-07T02:51:29.384Z,1015
2017-01-07T02:51:50.699Z,1015
2017-01-07T02:52:12.030Z,1015
2017-01-07T02:52:33.344Z,1015
2017-01-07T02:52:54.657Z,1014.9
2017-01-07T02:53:15.971Z,1014.9
2017-01-07T02:53:37.303Z,1014.9
2017-01-07T02:53:58.612Z,1014.9
2017-01-07T02:54:19.920Z,1014.9
2017-01-07T02:54:41.249Z,1014.9
2017-01-07T02:55:02.553Z,1014.9
2017-01-07T02:55:23.869Z,1014.8
2017-01-07T02:55:45.175Z,1014.9
2017-01-07T02:56:06.507Z,1014.8
2017-01-07T02:56:27.804Z,1014.9
2017-01-07T02:56:49.122Z,1014.8
2017-01-07T02:57:28.865Z,1014.8
2017-01-07T02:57:50.169Z,1014.8
2017-01-07T02:58:11.485Z,1014.8
2017-01-07T02:58:32.802Z,1014.8
2017-01-07T02:58:54.129Z,1014.8
2017-01-07T02:59:15.568Z,1014.7
2017-01-07T02:59:36.879Z,1014.7
2017-01-07T02:59:58.228Z,1014.7
2017-01-07T03:00:19.558Z,1014.7
2017-01-07T03:00:40.892Z,1014.7
2017-01-07T03:01:03.184Z,1014.7
2017-01-07T03:01:24.500Z,1014.7
2017-01-07T03:01:45.824Z,1014.7
2017-01-07T03:02:07.160Z,1014.7
2017-01-07T03:02:28.484Z,1014.7
2017-01-07T03:02:49.774Z,1014.7
2017-01-07T03:03:11.093Z,1014.8
2017-01-07T03:03:32.414Z,1014.7
2017-01-07T03:03:53.724Z,1014.7
2017-01-07T03:04:15.035Z,1014.7
2017-01-07T03:04:36.358Z,1014.7
2017-01-07T03:04:57.673Z,1014.7
2017-01-07T03:05:19.003Z,1014.7
2017-01-07T03:05:40.319Z,1014.7
2017-01-07T03:06:01.620Z,1014.7
2017-01-07T03:06:22.962Z,1014.7
2017-01-07T03:06:44.268Z,1014.7
2017-01-07T03:07:05.566Z,1014.7
2017-01-07T03:07:26.866Z,1014.8
2017-01-07T03:07:48.169Z,1014.7
2017-01-07T03:08:09.496Z,1014.8
2017-01-07T03:08:30.805Z,1014.7
2017-01-07T03:08:52.100Z,1014.7
2017-01-07T03:09:13.416Z,1014.7
2017-01-07T03:09:34.755Z,1014.7
2017-01-07T03:09:56.062Z,1014.7
2017-01-07T03:10:17.378Z,1014.7
2017-01-07T03:10:38.678Z,1014.7
2017-01-07T03:10:59.981Z,1014.7
2017-01-07T03:11:21.294Z,1014.7
2017-01-07T03:11:42.602Z,1014.7
2017-01-07T03:12:03.913Z,1014.7
2017-01-07T03:12:25.216Z,1014.7
2017-01-07T03:12:46.522Z,1014.7
2017-01-07T03:13:07.829Z,1014.7
2017-01-07T03:13:29.144Z,1014.7
2017-01-07T03:13:50.453Z,1014.7
2017-01-07T03:14:11.767Z,1014.7
2017-01-07T03:14:33.071Z,1014.7
2017-01-07T03:14:54.377Z,1014.7
2017-01-07T03:15:15.706Z,1014.7
2017-01-07T03:15:37.036Z,1014.7
2017-01-07T03:15:58.341Z,1014.7
2017-01-07T03:16:19.663Z,1014.7
2017-01-07T03:16:40.956Z,1014.7
2017-01-07T03:17:02.283Z,1014.7
2017-01-07T03:17:23.604Z,1014.6
2017-01-07T03:17:44.934Z,1014.7
2017-01-07T03:18:06.262Z,1014.7
2017-01-07T03:18:27.557Z,1014.7
2017-01-07T03:18:48.893Z,1014.7
2017-01-07T03:19:10.203Z,1014.7
2017-01-07T03:19:31.504Z,1014.7
2017-01-07T03:19:52.808Z,1014.7
2017-01-07T03:20:14.114Z,1014.7
2017-01-07T03:20:35.419Z,1014.7
2017-01-07T03:20:56.768Z,1014.7
2017-01-07T03:21:18.093Z,1014.7
2017-01-07T03:21:39.424Z,1014.7
2017-01-07T03:22:00.744Z,1014.7
2017-01-07T03:22:22.056Z,1014.7
2017-01-07T03:22:43.361Z,1014.7
2017-01-07T03:23:04.672Z,1014.7
2017-01-07T03:23:26.030Z,1014.7
2017-01-07T03:23:47.334Z,1014.7
2017-01-07T03:24:08.641Z,1014.7
2017-01-07T03:24:29.950Z,1014.7
2017-01-07T03:24:51.260Z,1014.7
2017-01-07T03:25:12.556Z,1014.7
2017-01-07T03:25:33.862Z,1014.7
2017-01-07T03:25:55.162Z,1014.7
2017-01-07T03:26:16.467Z,1014.7
2017-01-07T03:26:37.791Z,1014.7
2017-01-07T03:26:59.106Z,1014.7
2017-01-07T03:27:20.419Z,1014.7
2017-01-07T03:27:41.720Z,1014.7
2017-01-07T03:28:03.030Z,1014.7
2017-01-07T03:28:24.326Z,1014.7
2017-01-07T03:28:45.648Z,1014.8
2017-01-07T03:29:06.951Z,1014.7
2017-01-07T03:29:28.285Z,1014.7
2017-01-07T03:29:49.600Z,1014.8
2017-01-07T03:30:10.904Z,1014.8
2017-01-07T03:30:32.200Z,1014.7
2017-01-07T03:30:53.505Z,1014.7
2017-01-07T03:31:14.817Z,1014.7
2017-01-07T03:31:36.121Z,1014.7
2017-01-07T03:31:57.444Z,1014.7
2017-01-07T03:32:18.777Z,1014.7
2017-01-07T03:32:40.095Z,1014.7
2017-01-07T03:33:01.399Z,1014.7
2017-01-07T03:33:22.728Z,1014.7
2017-01-07T03:33:44.048Z,1014.7
2017-01-07T03:34:05.376Z,1014.8
2017-01-07T03:34:26.677Z,1014.7
2017-01-07T03:34:47.981Z,1014.8
2017-01-07T03:35:09.279Z,1014.7
2017-01-07T03:35:30.646Z,1014.7
2017-01-07T03:35:51.955Z,1014.7
2017-01-07T03:36:13.271Z,1014.7
2017-01-07T03:36:34.582Z,1014.7
2017-01-07T03:36:55.893Z,1014.8
2017-01-07T03:37:17.228Z,1014.7
2017-01-07T03:37:38.520Z,1014.7
2017-01-07T03:37:59.822Z,1014.7
2017-01-07T03:38:21.166Z,1014.7
2017-01-07T03:38:42.461Z,1014.7
2017-01-07T03:39:03.767Z,1014.7
2017-01-07T03:39:25.080Z,1014.7
2017-01-07T03:39:46.386Z,1014.7
2017-01-07T03:40:07.705Z,1014.7
2017-01-07T03:40:29.022Z,1014.7
2017-01-07T03:40:50.355Z,1014.7
2017-01-07T03:41:11.661Z,1014.7
2017-01-07T03:41:32.977Z,1014.7
2017-01-07T03:41:54.283Z,1014.7
2017-01-07T03:42:15.610Z,1014.7
2017-01-07T03:42:36.904Z,1014.7
2017-01-07T03:42:58.217Z,1014.7
2017-01-07T03:43:19.539Z,1014.7
2017-01-07T03:43:40.841Z,1014.6
2017-01-07T03:44:02.197Z,1014.7
2017-01-07T03:44:23.505Z,1014.7
2017-01-07T03:44:44.841Z,1014.7
2017-01-07T03:45:06.172Z,1014.7
2017-01-07T03:45:27.482Z,1014.7
2017-01-07T03:45:48.835Z,1014.7
2017-01-07T03:46:10.139Z,1014.7
2017-01-07T03:46:31.435Z,1014.7
2017-01-07T03:46:52.768Z,1014.7
2017-01-07T03:47:14.089Z,1014.6
2017-01-07T03:47:35.401Z,1014.6
2017-01-07T03:47:56.721Z,1014.6
2017-01-07T03:48:18.032Z,1014.6
2017-01-07T03:48:39.344Z,1014.6
2017-01-07T03:49:00.663Z,1014.6
2017-01-07T03:49:21.964Z,1014.6
2017-01-07T03:49:43.283Z,1014.6
2017-01-07T03:50:04.594Z,1014.6
2017-01-07T03:50:25.897Z,1014.6
2017-01-07T03:50:47.202Z,1014.6
2017-01-07T03:51:08.537Z,1014.6
2017-01-07T03:51:29.865Z,1014.6
2017-01-07T03:51:51.197Z,1014.6
2017-01-07T03:52:12.524Z,1014.6
2017-01-07T03:52:33.844Z,1014.6
2017-01-07T03:52:55.140Z,1014.6
2017-01-07T03:53:16.496Z,1014.6
2017-01-07T03:53:37.818Z,1014.6
2017-01-07T03:53:59.135Z,1014.6
2017-01-07T03:54:20.469Z,1014.6
2017-01-07T03:54:41.809Z,1014.5
2017-01-07T03:55:03.115Z,1014.6
2017-01-07T03:55:24.416Z,1014.6
2017-01-07T03:55:45.714Z,1014.6
2017-01-07T03:56:07.015Z,1014.6
2017-01-07T03:56:28.321Z,1014.5
2017-01-07T03:56:49.631Z,1014.5
2017-01-07T03:57:10.951Z,1014.5
2017-01-07T03:57:32.248Z,1014.6
2017-01-07T03:57:53.568Z,1014.6
2017-01-07T03:58:14.877Z,1014.6
2017-01-07T03:58:36.178Z,1014.6
2017-01-07T03:58:57.492Z,1014.6
2017-01-07T03:59:18.800Z,1014.6
2017-01-07T03:59:40.109Z,1014.7
2017-01-07T04:00:01.419Z,1014.6
2017-01-07T04:00:22.739Z,1014.6
2017-01-07T04:00:44.037Z,1014.6
2017-01-07T04:01:05.381Z,1014.6
2017-01-07T04:01:26.700Z,1014.6
2017-01-07T04:01:48.004Z,1014.6
2017-01-07T04:02:09.320Z,1014.6
2017-01-07T04:02:30.616Z,1014.6
2017-01-07T04:02:51.920Z,1014.6
2017-01-07T04:03:13.232Z,1014.6
2017-01-07T04:03:34.547Z,1014.6
2017-01-07T04:03:55.888Z,1014.6
2017-01-07T04:04:17.205Z,1014.5
2017-01-07T04:04:38.531Z,1014.5
2017-01-07T04:04:59.837Z,1014.6
2017-01-07T04:05:21.134Z,1014.6
2017-01-07T04:05:42.476Z,1014.6
2017-01-07T04:06:03.848Z,1014.6
2017-01-07T04:06:25.166Z,1014.6
2017-01-07T04:06:46.495Z,1014.5
2017-01-07T04:07:07.816Z,1014.6
2017-01-07T04:07:29.129Z,1014.6
2017-01-07T04:07:50.436Z,1014.5
2017-01-07T04:08:11.741Z,1014.5
2017-01-07T04:08:33.063Z,1014.5
2017-01-07T04:08:54.415Z,1014.5
2017-01-07T04:09:15.728Z,1014.5
2017-01-07T04:09:37.017Z,1014.5
2017-01-07T04:09:58.328Z,1014.5
2017-01-07T04:10:19.634Z,1014.5
2017-01-07T04:10:40.935Z,1014.5
2017-01-07T04:11:02.246Z,1014.5
2017-01-07T04:11:23.573Z,1014.5
2017-01-07T04:11:44.888Z,1014.5
2017-01-07T04:12:06.200Z,1014.5
2017-01-07T04:12:27.511Z,1014.5
2017-01-07T04:12:48.814Z,1014.5
2017-01-07T04:13:10.113Z,1014.5
2017-01-07T04:13:31.937Z,1014.5
2017-01-07T04:13:53.295Z,1014.5
2017-01-07T04:14:14.608Z,1014.5
2017-01-07T04:14:35.953Z,1014.4
2017-01-07T04:14:57.269Z,1014.4
2017-01-07T04:15:18.616Z,1014.4
2017-01-07T04:15:39.912Z,1014.4
2017-01-07T04:16:01.227Z,1014.4
2017-01-07T04:16:22.529Z,1014.4
2017-01-07T04:16:43.878Z,1014.4
2017-01-07T04:17:05.182Z,1014.4
2017-01-07T04:17:26.485Z,1014.4
2017-01-07T04:17:47.785Z,1014.4
2017-01-07T04:18:09.087Z,1014.4
2017-01-07T04:18:30.406Z,1014.4
2017-01-07T04:18:51.712Z,1014.4
2017-01-07T04:19:13.031Z,1014.4
2017-01-07T04:19:34.342Z,1014.4
2017-01-07T04:19:55.704Z,1014.4
2017-01-07T04:20:17.010Z,1014.3
2017-01-07T04:20:38.314Z,1014.3
2017-01-07T04:20:59.623Z,1014.3
2017-01-07T04:21:20.952Z,1014.4
2017-01-07T04:21:42.256Z,1014.3
2017-01-07T04:22:03.563Z,1014.4
2017-01-07T04:22:24.925Z,1014.3
2017-01-07T04:22:46.248Z,1014.3
2017-01-07T04:23:07.556Z,1014.3
2017-01-07T04:23:28.870Z,1014.3
2017-01-07T04:23:50.171Z,1014.3
2017-01-07T04:24:11.523Z,1014.3
2017-01-07T04:24:32.828Z,1014.3
2017-01-07T04:24:54.176Z,1014.3
2017-01-07T04:25:15.547Z,1014.3
2017-01-07T04:25:36.874Z,1014.3
2017-01-07T04:25:58.222Z,1014.3
2017-01-07T04:26:19.572Z,1014.3
2017-01-07T04:26:40.928Z,1014.2
2017-01-07T04:27:02.253Z,1014.3
2017-01-07T04:27:23.570Z,1014.3
2017-01-07T04:27:44.882Z,1014.3